sensor_id;sensor_type;location;lat;lon;timestamp;P1;durP1;ratioP1;P2;durP2;ratioP2
3054;SDS011;1537;52.018;8.542;2022-07-23T00:00:07;10.73;;;8.07;;
3054;SDS011;1537;52.018;8.542;2022-07-23T00:03:31;11.60;;;9.07;;
3054;SDS011;1537;52.018;8.542;2022-07-23T00:06:55;12.23;;;8.80;;
3054;SDS011;1537;52.018;8.542;2022-07-23T00:10:19;11.70;;;8.87;;
3054;SDS011;1537;52.018;8.542;2022-07-23T00:13:43;13.17;;;8.83;;
3054;SDS011;1537;52.018;8.542;2022-07-23T00:17:08;11.43;;;9.13;;
3054;SDS011;1537;52.018;8.542;2022-07-23T00:20:32;11.90;;;8.43;;
3054;SDS011;1537;52.018;8.542;2022-07-23T00:23:56;12.47;;;8.90;;
3054;SDS011;1537;52.018;8.542;2022-07-23T00:27:20;15.37;;;9.47;;
3054;SDS011;1537;52.018;8.542;2022-07-23T00:30:44;11.00;;;8.70;;
3054;SDS011;1537;52.018;8.542;2022-07-23T00:34:09;11.27;;;8.70;;
3054;SDS011;1537;52.018;8.542;2022-07-23T00:37:33;11.10;;;9.00;;
3054;SDS011;1537;52.018;8.542;2022-07-23T00:40:57;12.80;;;9.40;;
3054;SDS011;1537;52.018;8.542;2022-07-23T00:44:21;10.87;;;7.70;;
3054;SDS011;1537;52.018;8.542;2022-07-23T00:47:46;12.97;;;8.23;;
3054;SDS011;1537;52.018;8.542;2022-07-23T00:51:12;12.13;;;8.20;;
3054;SDS011;1537;52.018;8.542;2022-07-23T00:54:38;12.10;;;8.17;;
3054;SDS011;1537;52.018;8.542;2022-07-23T00:58:02;13.00;;;7.87;;
3054;SDS011;1537;52.018;8.542;2022-07-23T01:01:27;13.37;;;7.33;;
3054;SDS011;1537;52.018;8.542;2022-07-23T01:04:51;11.80;;;7.70;;
3054;SDS011;1537;52.018;8.542;2022-07-23T01:08:16;9.83;;;7.07;;
3054;SDS011;1537;52.018;8.542;2022-07-23T01:11:43;9.67;;;7.10;;
3054;SDS011;1537;52.018;8.542;2022-07-23T01:15:07;11.53;;;7.53;;
3054;SDS011;1537;52.018;8.542;2022-07-23T01:18:31;13.27;;;7.20;;
3054;SDS011;1537;52.018;8.542;2022-07-23T01:21:55;10.27;;;6.40;;
3054;SDS011;1537;52.018;8.542;2022-07-23T01:25:23;8.70;;;6.50;;
3054;SDS011;1537;52.018;8.542;2022-07-23T01:28:54;11.40;;;5.97;;
3054;SDS011;1537;52.018;8.542;2022-07-23T01:32:18;14.73;;;7.33;;
3054;SDS011;1537;52.018;8.542;2022-07-23T01:35:43;10.73;;;7.57;;
3054;SDS011;1537;52.018;8.542;2022-07-23T01:39:12;12.50;;;5.80;;
3054;SDS011;1537;52.018;8.542;2022-07-23T01:42:39;8.50;;;6.27;;
3054;SDS011;1537;52.018;8.542;2022-07-23T01:46:05;12.20;;;6.70;;
3054;SDS011;1537;52.018;8.542;2022-07-23T01:49:34;11.60;;;7.40;;
3054;SDS011;1537;52.018;8.542;2022-07-23T01:53:17;14.13;;;7.80;;
3054;SDS011;1537;52.018;8.542;2022-07-23T01:56:41;14.83;;;8.37;;
3054;SDS011;1537;52.018;8.542;2022-07-23T02:00:06;15.93;;;9.07;;
3054;SDS011;1537;52.018;8.542;2022-07-23T02:03:34;14.73;;;10.33;;
3054;SDS011;1537;52.018;8.542;2022-07-23T02:06:58;13.10;;;10.20;;
3054;SDS011;1537;52.018;8.542;2022-07-23T02:10:22;12.07;;;9.17;;
3054;SDS011;1537;52.018;8.542;2022-07-23T02:13:46;14.60;;;9.87;;
3054;SDS011;1537;52.018;8.542;2022-07-23T02:17:11;12.80;;;8.90;;
3054;SDS011;1537;52.018;8.542;2022-07-23T02:20:34;12.80;;;9.63;;
3054;SDS011;1537;52.018;8.542;2022-07-23T02:24:02;13.70;;;10.70;;
3054;SDS011;1537;52.018;8.542;2022-07-23T02:27:26;16.13;;;11.10;;
3054;SDS011;1537;52.018;8.542;2022-07-23T02:30:51;13.10;;;9.87;;
3054;SDS011;1537;52.018;8.542;2022-07-23T02:34:16;18.33;;;10.70;;
3054;SDS011;1537;52.018;8.542;2022-07-23T02:37:40;11.37;;;9.30;;
3054;SDS011;1537;52.018;8.542;2022-07-23T02:41:03;13.43;;;10.40;;
3054;SDS011;1537;52.018;8.542;2022-07-23T02:44:27;14.63;;;9.13;;
3054;SDS011;1537;52.018;8.542;2022-07-23T02:47:51;14.33;;;9.90;;
3054;SDS011;1537;52.018;8.542;2022-07-23T02:51:16;14.00;;;10.27;;
3054;SDS011;1537;52.018;8.542;2022-07-23T02:54:47;17.73;;;10.43;;
3054;SDS011;1537;52.018;8.542;2022-07-23T02:58:11;12.57;;;11.27;;
3054;SDS011;1537;52.018;8.542;2022-07-23T03:01:35;15.17;;;10.77;;
3054;SDS011;1537;52.018;8.542;2022-07-23T03:04:58;13.80;;;10.33;;
3054;SDS011;1537;52.018;8.542;2022-07-23T03:08:24;11.67;;;9.00;;
3054;SDS011;1537;52.018;8.542;2022-07-23T03:11:48;15.17;;;9.60;;
3054;SDS011;1537;52.018;8.542;2022-07-23T03:15:11;15.33;;;8.67;;
3054;SDS011;1537;52.018;8.542;2022-07-23T03:18:36;12.63;;;9.10;;
3054;SDS011;1537;52.018;8.542;2022-07-23T03:22:02;10.13;;;8.30;;
3054;SDS011;1537;52.018;8.542;2022-07-23T03:25:27;13.00;;;8.50;;
3054;SDS011;1537;52.018;8.542;2022-07-23T03:28:51;13.57;;;8.10;;
3054;SDS011;1537;52.018;8.542;2022-07-23T03:32:17;13.57;;;7.93;;
3054;SDS011;1537;52.018;8.542;2022-07-23T03:35:41;10.57;;;9.43;;
3054;SDS011;1537;52.018;8.542;2022-07-23T03:39:15;12.10;;;8.37;;
3054;SDS011;1537;52.018;8.542;2022-07-23T03:42:40;13.77;;;9.30;;
3054;SDS011;1537;52.018;8.542;2022-07-23T03:46:05;14.37;;;8.10;;
3054;SDS011;1537;52.018;8.542;2022-07-23T03:49:29;13.03;;;9.17;;
3054;SDS011;1537;52.018;8.542;2022-07-23T03:52:53;17.13;;;9.50;;
3054;SDS011;1537;52.018;8.542;2022-07-23T03:56:17;11.20;;;8.60;;
3054;SDS011;1537;52.018;8.542;2022-07-23T03:59:42;12.03;;;8.23;;
3054;SDS011;1537;52.018;8.542;2022-07-23T04:03:06;12.00;;;9.17;;
3054;SDS011;1537;52.018;8.542;2022-07-23T04:06:32;13.97;;;9.10;;
3054;SDS011;1537;52.018;8.542;2022-07-23T04:09:56;13.20;;;8.07;;
3054;SDS011;1537;52.018;8.542;2022-07-23T04:13:20;13.50;;;8.87;;
3054;SDS011;1537;52.018;8.542;2022-07-23T04:16:45;12.10;;;9.57;;
3054;SDS011;1537;52.018;8.542;2022-07-23T04:20:09;11.30;;;8.30;;
3054;SDS011;1537;52.018;8.542;2022-07-23T04:23:41;12.10;;;8.43;;
3054;SDS011;1537;52.018;8.542;2022-07-23T04:27:06;11.67;;;9.37;;
3054;SDS011;1537;52.018;8.542;2022-07-23T04:30:30;14.50;;;8.80;;
3054;SDS011;1537;52.018;8.542;2022-07-23T04:33:55;11.63;;;8.37;;
3054;SDS011;1537;52.018;8.542;2022-07-23T04:37:19;11.33;;;8.70;;
3054;SDS011;1537;52.018;8.542;2022-07-23T04:40:42;12.20;;;8.00;;
3054;SDS011;1537;52.018;8.542;2022-07-23T04:44:06;11.03;;;8.90;;
3054;SDS011;1537;52.018;8.542;2022-07-23T04:47:30;12.90;;;8.53;;
3054;SDS011;1537;52.018;8.542;2022-07-23T04:50:56;9.90;;;7.97;;
3054;SDS011;1537;52.018;8.542;2022-07-23T04:54:24;11.77;;;8.40;;
3054;SDS011;1537;52.018;8.542;2022-07-23T04:57:48;12.53;;;8.37;;
3054;SDS011;1537;52.018;8.542;2022-07-23T05:01:11;12.00;;;7.80;;
3054;SDS011;1537;52.018;8.542;2022-07-23T05:04:35;9.37;;;7.50;;
3054;SDS011;1537;52.018;8.542;2022-07-23T05:08:02;12.57;;;7.23;;
3054;SDS011;1537;52.018;8.542;2022-07-23T05:11:26;9.40;;;7.27;;
3054;SDS011;1537;52.018;8.542;2022-07-23T05:14:50;9.67;;;7.10;;
3054;SDS011;1537;52.018;8.542;2022-07-23T05:18:15;10.83;;;6.73;;
3054;SDS011;1537;52.018;8.542;2022-07-23T05:21:39;13.53;;;6.73;;
3054;SDS011;1537;52.018;8.542;2022-07-23T05:25:05;8.73;;;6.00;;
3054;SDS011;1537;52.018;8.542;2022-07-23T05:28:30;8.10;;;5.93;;
3054;SDS011;1537;52.018;8.542;2022-07-23T05:31:53;7.40;;;5.67;;
3054;SDS011;1537;52.018;8.542;2022-07-23T05:35:18;7.50;;;5.30;;
3054;SDS011;1537;52.018;8.542;2022-07-23T05:38:55;8.97;;;5.17;;
3054;SDS011;1537;52.018;8.542;2022-07-23T05:42:21;7.40;;;5.40;;
3054;SDS011;1537;52.018;8.542;2022-07-23T05:45:45;12.53;;;5.00;;
3054;SDS011;1537;52.018;8.542;2022-07-23T05:49:09;15.03;;;6.30;;
3054;SDS011;1537;52.018;8.542;2022-07-23T05:52:51;7.47;;;5.20;;
3054;SDS011;1537;52.018;8.542;2022-07-23T05:56:34;6.97;;;4.60;;
3054;SDS011;1537;52.018;8.542;2022-07-23T05:59:59;6.97;;;4.90;;
3054;SDS011;1537;52.018;8.542;2022-07-23T06:03:34;7.53;;;4.73;;
3054;SDS011;1537;52.018;8.542;2022-07-23T06:06:58;9.10;;;4.27;;
3054;SDS011;1537;52.018;8.542;2022-07-23T06:10:22;7.50;;;4.33;;
3054;SDS011;1537;52.018;8.542;2022-07-23T06:13:46;10.83;;;4.57;;
3054;SDS011;1537;52.018;8.542;2022-07-23T06:17:12;9.47;;;4.00;;
3054;SDS011;1537;52.018;8.542;2022-07-23T06:20:36;9.87;;;3.90;;
3054;SDS011;1537;52.018;8.542;2022-07-23T06:24:00;6.53;;;3.97;;
3054;SDS011;1537;52.018;8.542;2022-07-23T06:27:23;8.83;;;4.50;;
3054;SDS011;1537;52.018;8.542;2022-07-23T06:30:47;8.43;;;4.47;;
3054;SDS011;1537;52.018;8.542;2022-07-23T06:34:13;6.67;;;4.20;;
3054;SDS011;1537;52.018;8.542;2022-07-23T06:37:36;7.80;;;3.90;;
3054;SDS011;1537;52.018;8.542;2022-07-23T06:41:00;7.40;;;4.30;;
3054;SDS011;1537;52.018;8.542;2022-07-23T06:44:24;8.47;;;4.37;;
3054;SDS011;1537;52.018;8.542;2022-07-23T06:47:48;7.60;;;4.00;;
3054;SDS011;1537;52.018;8.542;2022-07-23T06:51:14;8.30;;;4.77;;
3054;SDS011;1537;52.018;8.542;2022-07-23T06:54:38;8.07;;;4.23;;
3054;SDS011;1537;52.018;8.542;2022-07-23T06:58:02;8.30;;;4.57;;
3054;SDS011;1537;52.018;8.542;2022-07-23T07:01:25;7.07;;;3.57;;
3054;SDS011;1537;52.018;8.542;2022-07-23T07:04:50;19.90;;;5.20;;
3054;SDS011;1537;52.018;8.542;2022-07-23T07:08:16;9.10;;;4.00;;
3054;SDS011;1537;52.018;8.542;2022-07-23T07:11:40;8.23;;;4.10;;
3054;SDS011;1537;52.018;8.542;2022-07-23T07:15:04;8.90;;;4.70;;
3054;SDS011;1537;52.018;8.542;2022-07-23T07:18:28;9.97;;;5.13;;
3054;SDS011;1537;52.018;8.542;2022-07-23T07:21:52;9.00;;;4.40;;
3054;SDS011;1537;52.018;8.542;2022-07-23T07:25:17;10.70;;;3.97;;
3054;SDS011;1537;52.018;8.542;2022-07-23T07:28:41;10.43;;;5.23;;
3054;SDS011;1537;52.018;8.542;2022-07-23T07:32:05;9.23;;;3.83;;
3054;SDS011;1537;52.018;8.542;2022-07-23T07:35:29;8.73;;;4.50;;
3054;SDS011;1537;52.018;8.542;2022-07-23T07:38:54;11.63;;;4.17;;
3054;SDS011;1537;52.018;8.542;2022-07-23T07:42:20;7.57;;;4.00;;
3054;SDS011;1537;52.018;8.542;2022-07-23T07:45:44;8.83;;;4.17;;
3054;SDS011;1537;52.018;8.542;2022-07-23T07:49:07;8.50;;;5.37;;
3054;SDS011;1537;52.018;8.542;2022-07-23T07:52:37;12.10;;;5.83;;
3054;SDS011;1537;52.018;8.542;2022-07-23T07:56:01;13.10;;;5.50;;
3054;SDS011;1537;52.018;8.542;2022-07-23T07:59:26;8.53;;;5.40;;
3054;SDS011;1537;52.018;8.542;2022-07-23T08:02:54;10.23;;;4.70;;
3054;SDS011;1537;52.018;8.542;2022-07-23T08:06:24;8.77;;;4.30;;
3054;SDS011;1537;52.018;8.542;2022-07-23T08:09:48;7.23;;;4.40;;
3054;SDS011;1537;52.018;8.542;2022-07-23T08:13:12;8.93;;;4.33;;
3054;SDS011;1537;52.018;8.542;2022-07-23T08:16:38;7.63;;;4.10;;
3054;SDS011;1537;52.018;8.542;2022-07-23T08:20:22;6.33;;;3.50;;
3054;SDS011;1537;52.018;8.542;2022-07-23T08:23:46;6.53;;;3.83;;
3054;SDS011;1537;52.018;8.542;2022-07-23T08:27:10;8.00;;;4.07;;
3054;SDS011;1537;52.018;8.542;2022-07-23T08:30:34;10.77;;;3.97;;
3054;SDS011;1537;52.018;8.542;2022-07-23T08:34:00;7.13;;;3.60;;
3054;SDS011;1537;52.018;8.542;2022-07-23T08:37:25;6.70;;;3.47;;
3054;SDS011;1537;52.018;8.542;2022-07-23T08:40:50;6.00;;;3.63;;
3054;SDS011;1537;52.018;8.542;2022-07-23T08:44:15;9.17;;;3.60;;
3054;SDS011;1537;52.018;8.542;2022-07-23T08:47:40;5.73;;;3.00;;
3054;SDS011;1537;52.018;8.542;2022-07-23T08:51:05;7.40;;;3.70;;
3054;SDS011;1537;52.018;8.542;2022-07-23T08:54:29;7.07;;;2.90;;
3054;SDS011;1537;52.018;8.542;2022-07-23T08:57:54;7.20;;;3.40;;
3054;SDS011;1537;52.018;8.542;2022-07-23T09:01:17;7.47;;;3.40;;
3054;SDS011;1537;52.018;8.542;2022-07-23T09:04:41;8.67;;;3.40;;
3054;SDS011;1537;52.018;8.542;2022-07-23T09:08:08;7.47;;;2.83;;
3054;SDS011;1537;52.018;8.542;2022-07-23T09:11:34;6.93;;;3.20;;
3054;SDS011;1537;52.018;8.542;2022-07-23T09:14:57;5.67;;;3.07;;
3054;SDS011;1537;52.018;8.542;2022-07-23T09:18:28;5.97;;;2.73;;
3054;SDS011;1537;52.018;8.542;2022-07-23T09:21:52;7.33;;;3.80;;
3054;SDS011;1537;52.018;8.542;2022-07-23T09:25:18;5.33;;;2.40;;
3054;SDS011;1537;52.018;8.542;2022-07-23T09:28:47;7.07;;;3.17;;
3054;SDS011;1537;52.018;8.542;2022-07-23T09:32:14;7.10;;;3.00;;
3054;SDS011;1537;52.018;8.542;2022-07-23T09:35:49;8.20;;;3.50;;
3054;SDS011;1537;52.018;8.542;2022-07-23T09:39:14;6.20;;;2.87;;
3054;SDS011;1537;52.018;8.542;2022-07-23T09:42:40;7.00;;;3.27;;
3054;SDS011;1537;52.018;8.542;2022-07-23T09:46:18;8.27;;;2.90;;
3054;SDS011;1537;52.018;8.542;2022-07-23T09:49:56;7.53;;;2.80;;
3054;SDS011;1537;52.018;8.542;2022-07-23T09:53:23;6.73;;;4.03;;
3054;SDS011;1537;52.018;8.542;2022-07-23T09:56:48;8.50;;;3.40;;
3054;SDS011;1537;52.018;8.542;2022-07-23T10:00:13;9.23;;;3.50;;
3054;SDS011;1537;52.018;8.542;2022-07-23T10:03:42;8.57;;;4.00;;
3054;SDS011;1537;52.018;8.542;2022-07-23T10:07:39;6.63;;;3.60;;
3054;SDS011;1537;52.018;8.542;2022-07-23T10:11:23;5.90;;;3.80;;
3054;SDS011;1537;52.018;8.542;2022-07-23T10:14:59;5.60;;;3.03;;
3054;SDS011;1537;52.018;8.542;2022-07-23T10:18:25;5.77;;;3.33;;
3054;SDS011;1537;52.018;8.542;2022-07-23T10:21:50;5.90;;;3.40;;
3054;SDS011;1537;52.018;8.542;2022-07-23T10:25:18;7.60;;;3.13;;
3054;SDS011;1537;52.018;8.542;2022-07-23T10:28:58;8.23;;;3.00;;
3054;SDS011;1537;52.018;8.542;2022-07-23T10:32:34;6.47;;;3.20;;
3054;SDS011;1537;52.018;8.542;2022-07-23T10:36:09;8.50;;;3.40;;
3054;SDS011;1537;52.018;8.542;2022-07-23T10:39:41;7.40;;;3.70;;
3054;SDS011;1537;52.018;8.542;2022-07-23T10:43:05;6.67;;;3.33;;
3054;SDS011;1537;52.018;8.542;2022-07-23T10:46:56;6.47;;;3.10;;
3054;SDS011;1537;52.018;8.542;2022-07-23T10:50:30;6.27;;;2.80;;
3054;SDS011;1537;52.018;8.542;2022-07-23T10:53:58;7.87;;;2.97;;
3054;SDS011;1537;52.018;8.542;2022-07-23T10:57:23;5.87;;;3.00;;
3054;SDS011;1537;52.018;8.542;2022-07-23T11:00:48;9.23;;;3.13;;
3054;SDS011;1537;52.018;8.542;2022-07-23T11:04:12;6.70;;;3.00;;
3054;SDS011;1537;52.018;8.542;2022-07-23T11:07:36;6.03;;;2.70;;
3054;SDS011;1537;52.018;8.542;2022-07-23T11:11:22;5.00;;;2.70;;
3054;SDS011;1537;52.018;8.542;2022-07-23T11:14:57;5.70;;;3.10;;
3054;SDS011;1537;52.018;8.542;2022-07-23T11:22:21;6.00;;;2.23;;
3054;SDS011;1537;52.018;8.542;2022-07-23T11:25:57;5.27;;;2.10;;
3054;SDS011;1537;52.018;8.542;2022-07-23T11:29:41;11.40;;;3.30;;
3054;SDS011;1537;52.018;8.542;2022-07-23T11:33:18;7.40;;;2.00;;
3054;SDS011;1537;52.018;8.542;2022-07-23T11:36:48;6.83;;;2.00;;
3054;SDS011;1537;52.018;8.542;2022-07-23T11:40:13;7.60;;;2.30;;
3054;SDS011;1537;52.018;8.542;2022-07-23T11:43:38;6.80;;;2.30;;
3054;SDS011;1537;52.018;8.542;2022-07-23T11:47:04;7.00;;;2.70;;
3054;SDS011;1537;52.018;8.542;2022-07-23T11:50:29;6.00;;;2.20;;
3054;SDS011;1537;52.018;8.542;2022-07-23T11:53:53;6.03;;;2.17;;
3054;SDS011;1537;52.018;8.542;2022-07-23T11:57:17;5.53;;;2.20;;
3054;SDS011;1537;52.018;8.542;2022-07-23T12:00:41;6.57;;;2.20;;
3054;SDS011;1537;52.018;8.542;2022-07-23T12:04:07;6.13;;;2.10;;
3054;SDS011;1537;52.018;8.542;2022-07-23T12:07:32;4.63;;;1.70;;
3054;SDS011;1537;52.018;8.542;2022-07-23T12:10:56;7.63;;;1.90;;
3054;SDS011;1537;52.018;8.542;2022-07-23T12:14:20;5.10;;;1.73;;
3054;SDS011;1537;52.018;8.542;2022-07-23T12:17:45;4.77;;;1.80;;
3054;SDS011;1537;52.018;8.542;2022-07-23T12:21:14;5.10;;;2.20;;
3054;SDS011;1537;52.018;8.542;2022-07-23T12:24:57;5.33;;;1.90;;
3054;SDS011;1537;52.018;8.542;2022-07-23T12:28:22;5.30;;;2.00;;
3054;SDS011;1537;52.018;8.542;2022-07-23T12:31:50;5.33;;;1.73;;
3054;SDS011;1537;52.018;8.542;2022-07-23T12:35:14;5.67;;;2.30;;
3054;SDS011;1537;52.018;8.542;2022-07-23T12:38:40;7.63;;;2.30;;
3054;SDS011;1537;52.018;8.542;2022-07-23T12:42:10;4.50;;;1.80;;
3054;SDS011;1537;52.018;8.542;2022-07-23T12:45:47;5.20;;;1.73;;
3054;SDS011;1537;52.018;8.542;2022-07-23T12:49:12;5.20;;;2.37;;
3054;SDS011;1537;52.018;8.542;2022-07-23T12:53:00;6.33;;;1.90;;
3054;SDS011;1537;52.018;8.542;2022-07-23T12:56:29;5.63;;;1.90;;
3054;SDS011;1537;52.018;8.542;2022-07-23T13:00:06;5.77;;;2.10;;
3054;SDS011;1537;52.018;8.542;2022-07-23T13:03:32;5.97;;;2.00;;
3054;SDS011;1537;52.018;8.542;2022-07-23T13:07:00;5.87;;;1.90;;
3054;SDS011;1537;52.018;8.542;2022-07-23T13:10:26;6.37;;;1.77;;
3054;SDS011;1537;52.018;8.542;2022-07-23T13:13:51;4.90;;;1.87;;
3054;SDS011;1537;52.018;8.542;2022-07-23T13:17:15;5.90;;;1.83;;
3054;SDS011;1537;52.018;8.542;2022-07-23T13:20:41;5.93;;;1.67;;
3054;SDS011;1537;52.018;8.542;2022-07-23T13:24:09;4.53;;;1.67;;
3054;SDS011;1537;52.018;8.542;2022-07-23T13:27:34;5.20;;;1.50;;
3054;SDS011;1537;52.018;8.542;2022-07-23T13:31:02;5.57;;;1.87;;
3054;SDS011;1537;52.018;8.542;2022-07-23T13:34:26;4.47;;;1.53;;
3054;SDS011;1537;52.018;8.542;2022-07-23T13:37:50;4.93;;;1.40;;
3054;SDS011;1537;52.018;8.542;2022-07-23T13:41:15;7.53;;;1.70;;
3054;SDS011;1537;52.018;8.542;2022-07-23T13:44:40;4.93;;;1.90;;
3054;SDS011;1537;52.018;8.542;2022-07-23T13:48:06;6.33;;;1.43;;
3054;SDS011;1537;52.018;8.542;2022-07-23T13:51:31;6.93;;;2.00;;
3054;SDS011;1537;52.018;8.542;2022-07-23T13:54:54;6.13;;;2.20;;
3054;SDS011;1537;52.018;8.542;2022-07-23T13:58:19;4.90;;;1.47;;
3054;SDS011;1537;52.018;8.542;2022-07-23T14:01:45;4.57;;;1.47;;
3054;SDS011;1537;52.018;8.542;2022-07-23T14:05:31;8.00;;;1.50;;
3054;SDS011;1537;52.018;8.542;2022-07-23T14:08:55;4.10;;;1.50;;
3054;SDS011;1537;52.018;8.542;2022-07-23T14:12:19;5.90;;;2.00;;
3054;SDS011;1537;52.018;8.542;2022-07-23T14:15:44;8.00;;;1.80;;
3054;SDS011;1537;52.018;8.542;2022-07-23T14:19:09;4.83;;;1.40;;
3054;SDS011;1537;52.018;8.542;2022-07-23T14:22:35;4.10;;;1.40;;
3054;SDS011;1537;52.018;8.542;2022-07-23T14:25:59;4.63;;;1.83;;
3054;SDS011;1537;52.018;8.542;2022-07-23T14:29:25;5.73;;;2.00;;
3054;SDS011;1537;52.018;8.542;2022-07-23T14:32:49;5.00;;;1.50;;
3054;SDS011;1537;52.018;8.542;2022-07-23T14:36:13;5.17;;;2.00;;
3054;SDS011;1537;52.018;8.542;2022-07-23T14:39:40;6.00;;;1.70;;
3054;SDS011;1537;52.018;8.542;2022-07-23T14:43:07;5.23;;;2.00;;
3054;SDS011;1537;52.018;8.542;2022-07-23T14:46:33;6.30;;;1.80;;
3054;SDS011;1537;52.018;8.542;2022-07-23T14:49:57;6.23;;;1.90;;
3054;SDS011;1537;52.018;8.542;2022-07-23T14:53:21;5.90;;;1.50;;
3054;SDS011;1537;52.018;8.542;2022-07-23T14:56:48;4.50;;;1.63;;
3054;SDS011;1537;52.018;8.542;2022-07-23T15:00:12;7.07;;;2.10;;
3054;SDS011;1537;52.018;8.542;2022-07-23T15:03:37;5.30;;;1.90;;
3054;SDS011;1537;52.018;8.542;2022-07-23T15:07:04;7.70;;;2.07;;
3054;SDS011;1537;52.018;8.542;2022-07-23T15:10:28;6.60;;;1.60;;
3054;SDS011;1537;52.018;8.542;2022-07-23T15:13:53;5.13;;;2.00;;
3054;SDS011;1537;52.018;8.542;2022-07-23T15:17:20;5.30;;;2.00;;
3054;SDS011;1537;52.018;8.542;2022-07-23T15:20:47;5.27;;;1.63;;
3054;SDS011;1537;52.018;8.542;2022-07-23T15:24:11;5.17;;;1.53;;
3054;SDS011;1537;52.018;8.542;2022-07-23T15:27:35;5.17;;;1.57;;
3054;SDS011;1537;52.018;8.542;2022-07-23T15:31:01;5.47;;;2.03;;
3054;SDS011;1537;52.018;8.542;2022-07-23T15:34:29;4.27;;;1.57;;
3054;SDS011;1537;52.018;8.542;2022-07-23T15:37:53;5.50;;;2.00;;
3054;SDS011;1537;52.018;8.542;2022-07-23T15:41:19;4.63;;;1.60;;
3054;SDS011;1537;52.018;8.542;2022-07-23T15:44:45;6.80;;;2.10;;
3054;SDS011;1537;52.018;8.542;2022-07-23T15:48:10;6.10;;;1.40;;
3054;SDS011;1537;52.018;8.542;2022-07-23T15:51:35;6.30;;;2.00;;
3054;SDS011;1537;52.018;8.542;2022-07-23T15:54:59;5.70;;;1.73;;
3054;SDS011;1537;52.018;8.542;2022-07-23T15:58:23;4.90;;;1.80;;
3054;SDS011;1537;52.018;8.542;2022-07-23T16:01:46;5.60;;;1.83;;
3054;SDS011;1537;52.018;8.542;2022-07-23T16:05:12;5.90;;;1.50;;
3054;SDS011;1537;52.018;8.542;2022-07-23T16:08:36;5.47;;;1.70;;
3054;SDS011;1537;52.018;8.542;2022-07-23T16:11:59;5.00;;;1.90;;
3054;SDS011;1537;52.018;8.542;2022-07-23T16:15:23;5.97;;;1.90;;
3054;SDS011;1537;52.018;8.542;2022-07-23T16:18:47;4.33;;;1.70;;
3054;SDS011;1537;52.018;8.542;2022-07-23T16:22:14;4.60;;;1.57;;
3054;SDS011;1537;52.018;8.542;2022-07-23T16:25:38;4.90;;;1.80;;
3054;SDS011;1537;52.018;8.542;2022-07-23T16:29:02;4.73;;;1.70;;
3054;SDS011;1537;52.018;8.542;2022-07-23T16:32:26;4.53;;;1.67;;
3054;SDS011;1537;52.018;8.542;2022-07-23T16:35:50;6.63;;;2.40;;
3054;SDS011;1537;52.018;8.542;2022-07-23T16:39:15;4.67;;;2.13;;
3054;SDS011;1537;52.018;8.542;2022-07-23T16:42:39;4.93;;;2.30;;
3054;SDS011;1537;52.018;8.542;2022-07-23T16:46:03;4.90;;;2.00;;
3054;SDS011;1537;52.018;8.542;2022-07-23T16:49:29;5.30;;;1.77;;
3054;SDS011;1537;52.018;8.542;2022-07-23T16:52:53;4.90;;;1.77;;
3054;SDS011;1537;52.018;8.542;2022-07-23T16:56:18;4.37;;;2.03;;
3054;SDS011;1537;52.018;8.542;2022-07-23T16:59:42;5.23;;;1.63;;
3054;SDS011;1537;52.018;8.542;2022-07-23T17:03:06;6.00;;;1.90;;
3054;SDS011;1537;52.018;8.542;2022-07-23T17:06:29;5.40;;;2.27;;
3054;SDS011;1537;52.018;8.542;2022-07-23T17:09:54;5.73;;;2.60;;
3054;SDS011;1537;52.018;8.542;2022-07-23T17:13:20;8.40;;;2.50;;
3054;SDS011;1537;52.018;8.542;2022-07-23T17:16:44;4.40;;;1.67;;
3054;SDS011;1537;52.018;8.542;2022-07-23T17:20:08;5.63;;;2.00;;
3054;SDS011;1537;52.018;8.542;2022-07-23T17:23:33;4.77;;;1.97;;
3054;SDS011;1537;52.018;8.542;2022-07-23T17:26:57;5.20;;;1.80;;
3054;SDS011;1537;52.018;8.542;2022-07-23T17:30:28;4.63;;;1.70;;
3054;SDS011;1537;52.018;8.542;2022-07-23T17:33:52;4.60;;;1.80;;
3054;SDS011;1537;52.018;8.542;2022-07-23T17:37:16;5.10;;;2.00;;
3054;SDS011;1537;52.018;8.542;2022-07-23T17:40:40;4.73;;;1.90;;
3054;SDS011;1537;52.018;8.542;2022-07-23T17:44:04;6.00;;;1.80;;
3054;SDS011;1537;52.018;8.542;2022-07-23T17:47:30;6.47;;;2.83;;
3054;SDS011;1537;52.018;8.542;2022-07-23T17:50:53;6.40;;;2.03;;
3054;SDS011;1537;52.018;8.542;2022-07-23T17:54:18;6.73;;;2.17;;
3054;SDS011;1537;52.018;8.542;2022-07-23T17:57:42;4.20;;;1.77;;
3054;SDS011;1537;52.018;8.542;2022-07-23T18:01:06;4.90;;;1.80;;
3054;SDS011;1537;52.018;8.542;2022-07-23T18:04:35;6.20;;;1.73;;
3054;SDS011;1537;52.018;8.542;2022-07-23T18:08:01;5.63;;;2.53;;
3054;SDS011;1537;52.018;8.542;2022-07-23T18:11:25;5.27;;;2.00;;
3054;SDS011;1537;52.018;8.542;2022-07-23T18:14:48;5.20;;;2.10;;
3054;SDS011;1537;52.018;8.542;2022-07-23T18:18:14;5.50;;;1.97;;
3054;SDS011;1537;52.018;8.542;2022-07-23T18:21:39;4.73;;;2.30;;
3054;SDS011;1537;52.018;8.542;2022-07-23T18:25:04;5.70;;;2.87;;
3054;SDS011;1537;52.018;8.542;2022-07-23T18:28:29;5.17;;;2.03;;
3054;SDS011;1537;52.018;8.542;2022-07-23T18:31:54;4.57;;;1.83;;
3054;SDS011;1537;52.018;8.542;2022-07-23T18:35:18;7.90;;;2.17;;
3054;SDS011;1537;52.018;8.542;2022-07-23T18:38:45;6.77;;;2.50;;
3054;SDS011;1537;52.018;8.542;2022-07-23T18:42:17;7.37;;;2.57;;
3054;SDS011;1537;52.018;8.542;2022-07-23T18:45:42;5.23;;;2.10;;
3054;SDS011;1537;52.018;8.542;2022-07-23T18:49:06;6.33;;;2.30;;
3054;SDS011;1537;52.018;8.542;2022-07-23T18:52:35;7.03;;;2.20;;
3054;SDS011;1537;52.018;8.542;2022-07-23T18:56:00;5.23;;;2.20;;
3054;SDS011;1537;52.018;8.542;2022-07-23T18:59:24;5.30;;;2.20;;
3054;SDS011;1537;52.018;8.542;2022-07-23T19:02:48;5.10;;;2.20;;
3054;SDS011;1537;52.018;8.542;2022-07-23T19:06:15;6.07;;;2.80;;
3054;SDS011;1537;52.018;8.542;2022-07-23T19:09:39;5.07;;;2.33;;
3054;SDS011;1537;52.018;8.542;2022-07-23T19:13:05;5.87;;;3.10;;
3054;SDS011;1537;52.018;8.542;2022-07-23T19:16:29;4.70;;;2.50;;
3054;SDS011;1537;52.018;8.542;2022-07-23T19:19:54;5.57;;;2.63;;
3054;SDS011;1537;52.018;8.542;2022-07-23T19:23:20;6.10;;;2.37;;
3054;SDS011;1537;52.018;8.542;2022-07-23T19:26:47;4.60;;;2.10;;
3054;SDS011;1537;52.018;8.542;2022-07-23T19:30:12;4.93;;;1.90;;
3054;SDS011;1537;52.018;8.542;2022-07-23T19:33:36;6.40;;;2.10;;
3054;SDS011;1537;52.018;8.542;2022-07-23T19:37:00;4.77;;;2.27;;
3054;SDS011;1537;52.018;8.542;2022-07-23T19:40:24;5.80;;;2.40;;
3054;SDS011;1537;52.018;8.542;2022-07-23T19:43:48;7.17;;;3.70;;
3054;SDS011;1537;52.018;8.542;2022-07-23T19:47:13;5.43;;;3.10;;
3054;SDS011;1537;52.018;8.542;2022-07-23T19:50:38;6.20;;;3.10;;
3054;SDS011;1537;52.018;8.542;2022-07-23T19:54:02;5.97;;;2.40;;
3054;SDS011;1537;52.018;8.542;2022-07-23T19:57:27;5.23;;;2.50;;
3054;SDS011;1537;52.018;8.542;2022-07-23T20:00:58;5.73;;;2.50;;
3054;SDS011;1537;52.018;8.542;2022-07-23T20:04:24;6.03;;;2.60;;
3054;SDS011;1537;52.018;8.542;2022-07-23T20:07:48;6.20;;;2.50;;
3054;SDS011;1537;52.018;8.542;2022-07-23T20:11:12;6.70;;;2.63;;
3054;SDS011;1537;52.018;8.542;2022-07-23T20:14:36;5.70;;;2.90;;
3054;SDS011;1537;52.018;8.542;2022-07-23T20:18:00;6.77;;;2.03;;
3054;SDS011;1537;52.018;8.542;2022-07-23T20:21:26;5.20;;;2.50;;
3054;SDS011;1537;52.018;8.542;2022-07-23T20:24:49;6.27;;;2.60;;
3054;SDS011;1537;52.018;8.542;2022-07-23T20:28:13;5.33;;;2.80;;
3054;SDS011;1537;52.018;8.542;2022-07-23T20:31:39;5.47;;;2.50;;
3054;SDS011;1537;52.018;8.542;2022-07-23T20:35:04;5.20;;;2.50;;
3054;SDS011;1537;52.018;8.542;2022-07-23T20:38:29;5.80;;;2.30;;
3054;SDS011;1537;52.018;8.542;2022-07-23T20:41:54;5.70;;;2.90;;
3054;SDS011;1537;52.018;8.542;2022-07-23T20:45:17;8.20;;;2.90;;
3054;SDS011;1537;52.018;8.542;2022-07-23T20:48:46;4.97;;;2.60;;
3054;SDS011;1537;52.018;8.542;2022-07-23T20:52:12;6.27;;;3.00;;
3054;SDS011;1537;52.018;8.542;2022-07-23T20:55:45;6.03;;;3.37;;
3054;SDS011;1537;52.018;8.542;2022-07-23T20:59:08;6.80;;;3.17;;
3054;SDS011;1537;52.018;8.542;2022-07-23T21:02:32;5.40;;;2.83;;
3054;SDS011;1537;52.018;8.542;2022-07-23T21:05:56;8.40;;;4.73;;
3054;SDS011;1537;52.018;8.542;2022-07-23T21:09:22;8.90;;;3.53;;
3054;SDS011;1537;52.018;8.542;2022-07-23T21:12:47;6.90;;;3.33;;
3054;SDS011;1537;52.018;8.542;2022-07-23T21:16:11;5.40;;;3.10;;